sensor_id;sensor_type;location;lat;lon;timestamp;P1;durP1;ratioP1;P2;durP2;ratioP2
32826;SDS011;51059;42.058;27.986;2022-12-18T00:00:29;14.20;;;9.73;;
32826;SDS011;51059;42.058;27.986;2022-12-18T00:02:55;20.63;;;8.97;;
32826;SDS011;51059;42.058;27.986;2022-12-18T00:05:20;19.50;;;10.07;;
32826;SDS011;51059;42.058;27.986;2022-12-18T00:07:46;17.80;;;10.10;;
32826;SDS011;51059;42.058;27.986;2022-12-18T00:10:12;18.80;;;10.03;;
32826;SDS011;51059;42.058;27.986;2022-12-18T00:12:37;20.07;;;10.50;;
32826;SDS011;51059;42.058;27.986;2022-12-18T00:15:03;16.13;;;11.63;;
32826;SDS011;51059;42.058;27.986;2022-12-18T00:17:29;15.70;;;11.00;;
32826;SDS011;51059;42.058;27.986;2022-12-18T00:19:55;18.47;;;11.67;;
32826;SDS011;51059;42.058;27.986;2022-12-18T00:22:20;21.03;;;11.20;;
32826;SDS011;51059;42.058;27.986;2022-12-18T00:24:46;20.47;;;10.83;;
32826;SDS011;51059;42.058;27.986;2022-12-18T00:27:11;17.27;;;9.97;;
32826;SDS011;51059;42.058;27.986;2022-12-18T00:29:37;15.80;;;10.50;;
32826;SDS011;51059;42.058;27.986;2022-12-18T00:32:05;16.30;;;9.97;;
32826;SDS011;51059;42.058;27.986;2022-12-18T00:34:31;22.53;;;10.50;;
32826;SDS011;51059;42.058;27.986;2022-12-18T00:36:56;18.97;;;10.70;;
32826;SDS011;51059;42.058;27.986;2022-12-18T00:39:22;24.30;;;10.90;;
32826;SDS011;51059;42.058;27.986;2022-12-18T00:41:48;17.87;;;9.83;;
32826;SDS011;51059;42.058;27.986;2022-12-18T00:44:32;17.27;;;10.90;;
32826;SDS011;51059;42.058;27.986;2022-12-18T00:46:57;16.20;;;10.30;;
32826;SDS011;51059;42.058;27.986;2022-12-18T00:49:23;16.67;;;10.40;;
32826;SDS011;51059;42.058;27.986;2022-12-18T00:51:48;18.60;;;10.33;;
32826;SDS011;51059;42.058;27.986;2022-12-18T00:54:14;21.47;;;10.00;;
32826;SDS011;51059;42.058;27.986;2022-12-18T00:56:40;19.10;;;9.60;;
32826;SDS011;51059;42.058;27.986;2022-12-18T00:59:06;20.50;;;11.13;;
32826;SDS011;51059;42.058;27.986;2022-12-18T01:01:31;20.90;;;10.73;;
32826;SDS011;51059;42.058;27.986;2022-12-18T01:03:58;20.40;;;10.93;;
32826;SDS011;51059;42.058;27.986;2022-12-18T01:06:25;19.73;;;11.17;;
32826;SDS011;51059;42.058;27.986;2022-12-18T01:08:50;20.30;;;12.87;;
32826;SDS011;51059;42.058;27.986;2022-12-18T01:11:17;17.73;;;13.10;;
32826;SDS011;51059;42.058;27.986;2022-12-18T01:13:44;21.90;;;12.00;;
32826;SDS011;51059;42.058;27.986;2022-12-18T01:16:13;21.67;;;11.77;;
32826;SDS011;51059;42.058;27.986;2022-12-18T01:18:39;17.83;;;11.27;;
32826;SDS011;51059;42.058;27.986;2022-12-18T01:21:09;20.63;;;10.67;;
32826;SDS011;51059;42.058;27.986;2022-12-18T01:23:36;20.07;;;10.40;;
32826;SDS011;51059;42.058;27.986;2022-12-18T01:26:10;13.60;;;9.30;;
32826;SDS011;51059;42.058;27.986;2022-12-18T01:28:37;12.23;;;8.47;;
32826;SDS011;51059;42.058;27.986;2022-12-18T01:31:14;15.30;;;9.60;;
32826;SDS011;51059;42.058;27.986;2022-12-18T01:33:43;16.87;;;10.23;;
32826;SDS011;51059;42.058;27.986;2022-12-18T01:36:14;16.00;;;10.33;;
32826;SDS011;51059;42.058;27.986;2022-12-18T01:38:50;15.20;;;10.00;;
32826;SDS011;51059;42.058;27.986;2022-12-18T01:41:17;18.97;;;10.10;;
32826;SDS011;51059;42.058;27.986;2022-12-18T01:43:54;17.17;;;9.47;;
32826;SDS011;51059;42.058;27.986;2022-12-18T01:46:25;19.73;;;10.00;;
32826;SDS011;51059;42.058;27.986;2022-12-18T01:49:01;16.30;;;9.97;;
32826;SDS011;51059;42.058;27.986;2022-12-18T01:51:27;14.50;;;9.93;;
32826;SDS011;51059;42.058;27.986;2022-12-18T01:53:53;12.00;;;9.43;;
32826;SDS011;51059;42.058;27.986;2022-12-18T01:56:19;16.17;;;10.43;;
32826;SDS011;51059;42.058;27.986;2022-12-18T02:01:30;16.23;;;9.77;;
32826;SDS011;51059;42.058;27.986;2022-12-18T02:03:56;16.50;;;10.43;;
32826;SDS011;51059;42.058;27.986;2022-12-18T02:06:34;18.53;;;10.27;;
32826;SDS011;51059;42.058;27.986;2022-12-18T02:09:14;15.90;;;10.23;;
32826;SDS011;51059;42.058;27.986;2022-12-18T02:11:46;21.83;;;10.37;;
32826;SDS011;51059;42.058;27.986;2022-12-18T02:14:17;14.50;;;9.70;;
32826;SDS011;51059;42.058;27.986;2022-12-18T02:16:57;15.43;;;10.40;;
32826;SDS011;51059;42.058;27.986;2022-12-18T02:19:33;17.07;;;10.83;;
32826;SDS011;51059;42.058;27.986;2022-12-18T02:25:25;17.10;;;11.17;;
32826;SDS011;51059;42.058;27.986;2022-12-18T02:27:53;26.63;;;10.90;;
32826;SDS011;51059;42.058;27.986;2022-12-18T02:30:20;23.57;;;11.77;;
32826;SDS011;51059;42.058;27.986;2022-12-18T02:32:47;18.23;;;11.63;;
32826;SDS011;51059;42.058;27.986;2022-12-18T02:35:16;19.10;;;10.87;;
32826;SDS011;51059;42.058;27.986;2022-12-18T02:37:45;18.87;;;11.53;;
32826;SDS011;51059;42.058;27.986;2022-12-18T02:40:12;19.10;;;13.33;;
32826;SDS011;51059;42.058;27.986;2022-12-18T02:42:39;22.17;;;11.73;;
32826;SDS011;51059;42.058;27.986;2022-12-18T02:45:05;19.73;;;10.43;;
32826;SDS011;51059;42.058;27.986;2022-12-18T02:47:32;12.00;;;8.43;;
32826;SDS011;51059;42.058;27.986;2022-12-18T02:58:33;24.47;;;8.53;;
32826;SDS011;51059;42.058;27.986;2022-12-18T03:01:28;21.73;;;8.73;;
32826;SDS011;51059;42.058;27.986;2022-12-18T03:04:07;15.50;;;7.90;;
32826;SDS011;51059;42.058;27.986;2022-12-18T03:06:43;20.30;;;7.77;;
32826;SDS011;51059;42.058;27.986;2022-12-18T03:09:15;14.80;;;6.97;;
32826;SDS011;51059;42.058;27.986;2022-12-18T03:11:46;26.17;;;7.73;;
32826;SDS011;51059;42.058;27.986;2022-12-18T03:14:34;31.47;;;8.50;;
32826;SDS011;51059;42.058;27.986;2022-12-18T03:17:04;30.97;;;8.70;;
32826;SDS011;51059;42.058;27.986;2022-12-18T03:19:32;35.87;;;8.67;;
32826;SDS011;51059;42.058;27.986;2022-12-18T03:21:58;35.37;;;9.10;;
32826;SDS011;51059;42.058;27.986;2022-12-18T03:24:26;38.97;;;9.93;;
32826;SDS011;51059;42.058;27.986;2022-12-18T03:26:54;22.63;;;7.63;;
32826;SDS011;51059;42.058;27.986;2022-12-18T03:29:42;23.30;;;7.93;;
32826;SDS011;51059;42.058;27.986;2022-12-18T03:32:12;32.23;;;9.00;;
32826;SDS011;51059;42.058;27.986;2022-12-18T03:34:41;21.80;;;7.83;;
32826;SDS011;51059;42.058;27.986;2022-12-18T03:37:08;19.27;;;8.53;;
32826;SDS011;51059;42.058;27.986;2022-12-18T03:39:34;21.10;;;7.57;;
32826;SDS011;51059;42.058;27.986;2022-12-18T03:53:15;30.33;;;8.13;;
32826;SDS011;51059;42.058;27.986;2022-12-18T03:56:03;29.37;;;8.03;;
32826;SDS011;51059;42.058;27.986;2022-12-18T03:58:29;27.43;;;7.83;;
32826;SDS011;51059;42.058;27.986;2022-12-18T04:00:57;31.33;;;7.60;;
32826;SDS011;51059;42.058;27.986;2022-12-18T04:03:25;28.50;;;7.47;;
32826;SDS011;51059;42.058;27.986;2022-12-18T04:05:52;20.87;;;7.27;;
32826;SDS011;51059;42.058;27.986;2022-12-18T04:08:19;15.97;;;6.33;;
32826;SDS011;51059;42.058;27.986;2022-12-18T04:10:46;17.30;;;6.43;;
32826;SDS011;51059;42.058;27.986;2022-12-18T04:13:11;19.60;;;6.20;;
32826;SDS011;51059;42.058;27.986;2022-12-18T04:15:37;17.87;;;5.17;;
32826;SDS011;51059;42.058;27.986;2022-12-18T04:18:03;18.03;;;5.83;;
32826;SDS011;51059;42.058;27.986;2022-12-18T04:20:29;13.20;;;5.67;;
32826;SDS011;51059;42.058;27.986;2022-12-18T04:22:55;15.87;;;5.93;;
32826;SDS011;51059;42.058;27.986;2022-12-18T04:25:20;14.27;;;4.60;;
32826;SDS011;51059;42.058;27.986;2022-12-18T04:27:46;16.00;;;5.20;;
32826;SDS011;51059;42.058;27.986;2022-12-18T04:30:11;16.00;;;5.37;;
32826;SDS011;51059;42.058;27.986;2022-12-18T04:32:37;19.70;;;5.87;;
32826;SDS011;51059;42.058;27.986;2022-12-18T04:35:03;13.73;;;5.67;;
32826;SDS011;51059;42.058;27.986;2022-12-18T04:37:31;16.57;;;5.13;;
32826;SDS011;51059;42.058;27.986;2022-12-18T04:39:57;16.00;;;5.70;;
32826;SDS011;51059;42.058;27.986;2022-12-18T04:42:22;10.03;;;5.10;;
32826;SDS011;51059;42.058;27.986;2022-12-18T04:44:48;14.83;;;5.60;;
32826;SDS011;51059;42.058;27.986;2022-12-18T04:47:14;15.50;;;6.27;;
32826;SDS011;51059;42.058;27.986;2022-12-18T04:49:39;15.63;;;6.23;;
32826;SDS011;51059;42.058;27.986;2022-12-18T04:52:05;20.87;;;6.93;;
32826;SDS011;51059;42.058;27.986;2022-12-18T04:54:30;21.53;;;7.10;;
32826;SDS011;51059;42.058;27.986;2022-12-18T04:56:56;20.87;;;6.10;;
32826;SDS011;51059;42.058;27.986;2022-12-18T04:59:21;22.23;;;6.83;;
32826;SDS011;51059;42.058;27.986;2022-12-18T05:01:47;21.63;;;7.03;;
32826;SDS011;51059;42.058;27.986;2022-12-18T05:04:13;16.83;;;6.20;;
32826;SDS011;51059;42.058;27.986;2022-12-18T05:06:38;17.67;;;5.83;;
32826;SDS011;51059;42.058;27.986;2022-12-18T05:09:04;16.20;;;6.47;;
32826;SDS011;51059;42.058;27.986;2022-12-18T05:11:29;13.27;;;6.20;;
32826;SDS011;51059;42.058;27.986;2022-12-18T05:13:55;13.50;;;5.90;;
32826;SDS011;51059;42.058;27.986;2022-12-18T05:16:20;11.80;;;5.47;;
32826;SDS011;51059;42.058;27.986;2022-12-18T05:18:46;15.13;;;5.03;;
32826;SDS011;51059;42.058;27.986;2022-12-18T05:21:11;13.43;;;5.80;;
32826;SDS011;51059;42.058;27.986;2022-12-18T05:23:37;24.87;;;6.50;;
32826;SDS011;51059;42.058;27.986;2022-12-18T05:26:03;18.87;;;5.73;;
32826;SDS011;51059;42.058;27.986;2022-12-18T05:28:31;16.37;;;6.20;;
32826;SDS011;51059;42.058;27.986;2022-12-18T05:30:58;12.17;;;6.10;;
32826;SDS011;51059;42.058;27.986;2022-12-18T05:33:25;18.57;;;5.47;;
32826;SDS011;51059;42.058;27.986;2022-12-18T05:35:52;14.57;;;5.63;;
32826;SDS011;51059;42.058;27.986;2022-12-18T05:38:19;9.87;;;6.07;;
32826;SDS011;51059;42.058;27.986;2022-12-18T05:40:45;9.43;;;5.50;;
32826;SDS011;51059;42.058;27.986;2022-12-18T05:43:11;13.07;;;5.90;;
32826;SDS011;51059;42.058;27.986;2022-12-18T05:45:37;17.30;;;6.27;;
32826;SDS011;51059;42.058;27.986;2022-12-18T05:48:03;21.93;;;5.73;;
32826;SDS011;51059;42.058;27.986;2022-12-18T05:50:29;13.80;;;5.77;;
32826;SDS011;51059;42.058;27.986;2022-12-18T05:52:54;14.17;;;5.53;;
32826;SDS011;51059;42.058;27.986;2022-12-18T05:55:20;15.40;;;6.10;;
32826;SDS011;51059;42.058;27.986;2022-12-18T05:57:46;25.57;;;6.17;;
32826;SDS011;51059;42.058;27.986;2022-12-18T06:00:12;22.30;;;6.60;;
32826;SDS011;51059;42.058;27.986;2022-12-18T06:02:38;21.73;;;7.40;;
32826;SDS011;51059;42.058;27.986;2022-12-18T06:05:03;21.80;;;6.90;;
32826;SDS011;51059;42.058;27.986;2022-12-18T06:07:29;20.47;;;6.50;;
32826;SDS011;51059;42.058;27.986;2022-12-18T06:09:55;15.00;;;6.53;;
32826;SDS011;51059;42.058;27.986;2022-12-18T06:12:20;22.17;;;6.57;;
32826;SDS011;51059;42.058;27.986;2022-12-18T06:14:46;14.30;;;5.87;;
32826;SDS011;51059;42.058;27.986;2022-12-18T06:17:11;13.93;;;5.73;;
32826;SDS011;51059;42.058;27.986;2022-12-18T06:19:37;11.80;;;5.27;;
32826;SDS011;51059;42.058;27.986;2022-12-18T06:22:03;11.30;;;5.30;;
32826;SDS011;51059;42.058;27.986;2022-12-18T06:24:29;12.53;;;5.57;;
32826;SDS011;51059;42.058;27.986;2022-12-18T06:26:55;19.90;;;5.70;;
32826;SDS011;51059;42.058;27.986;2022-12-18T06:29:20;14.33;;;6.13;;
32826;SDS011;51059;42.058;27.986;2022-12-18T06:31:46;19.27;;;6.33;;
32826;SDS011;51059;42.058;27.986;2022-12-18T06:34:11;10.23;;;5.60;;
32826;SDS011;51059;42.058;27.986;2022-12-18T06:36:37;13.60;;;6.50;;
32826;SDS011;51059;42.058;27.986;2022-12-18T06:39:02;16.13;;;5.97;;
32826;SDS011;51059;42.058;27.986;2022-12-18T06:41:28;9.93;;;5.60;;
32826;SDS011;51059;42.058;27.986;2022-12-18T06:43:53;21.33;;;6.43;;
32826;SDS011;51059;42.058;27.986;2022-12-18T06:46:19;12.23;;;5.70;;
32826;SDS011;51059;42.058;27.986;2022-12-18T06:48:48;18.23;;;6.00;;
32826;SDS011;51059;42.058;27.986;2022-12-18T06:51:18;16.03;;;5.90;;
32826;SDS011;51059;42.058;27.986;2022-12-18T06:53:44;19.77;;;6.53;;
32826;SDS011;51059;42.058;27.986;2022-12-18T06:56:10;17.57;;;5.87;;
32826;SDS011;51059;42.058;27.986;2022-12-18T06:58:36;11.13;;;5.37;;
32826;SDS011;51059;42.058;27.986;2022-12-18T07:01:05;19.23;;;6.03;;
32826;SDS011;51059;42.058;27.986;2022-12-18T07:03:32;13.43;;;6.07;;
32826;SDS011;51059;42.058;27.986;2022-12-18T07:05:58;15.63;;;6.83;;
32826;SDS011;51059;42.058;27.986;2022-12-18T07:08:24;15.83;;;7.20;;
32826;SDS011;51059;42.058;27.986;2022-12-18T07:10:49;17.30;;;7.60;;
32826;SDS011;51059;42.058;27.986;2022-12-18T07:13:15;16.07;;;8.53;;
32826;SDS011;51059;42.058;27.986;2022-12-18T07:15:41;20.37;;;8.93;;
32826;SDS011;51059;42.058;27.986;2022-12-18T07:18:07;16.67;;;8.97;;
32826;SDS011;51059;42.058;27.986;2022-12-18T07:20:32;19.03;;;9.53;;
32826;SDS011;51059;42.058;27.986;2022-12-18T07:22:58;18.20;;;9.57;;
32826;SDS011;51059;42.058;27.986;2022-12-18T07:25:23;20.17;;;9.70;;
32826;SDS011;51059;42.058;27.986;2022-12-18T07:27:49;19.77;;;9.73;;
32826;SDS011;51059;42.058;27.986;2022-12-18T07:30:14;17.23;;;9.13;;
32826;SDS011;51059;42.058;27.986;2022-12-18T07:32:40;22.37;;;9.60;;
32826;SDS011;51059;42.058;27.986;2022-12-18T07:35:06;19.80;;;9.67;;
32826;SDS011;51059;42.058;27.986;2022-12-18T07:37:31;14.90;;;8.20;;
32826;SDS011;51059;42.058;27.986;2022-12-18T07:39:57;12.23;;;8.03;;
32826;SDS011;51059;42.058;27.986;2022-12-18T07:42:22;17.07;;;9.03;;
32826;SDS011;51059;42.058;27.986;2022-12-18T07:44:57;18.87;;;8.80;;
32826;SDS011;51059;42.058;27.986;2022-12-18T07:47:23;18.13;;;9.33;;
32826;SDS011;51059;42.058;27.986;2022-12-18T07:49:49;18.40;;;9.30;;
32826;SDS011;51059;42.058;27.986;2022-12-18T07:52:15;19.07;;;9.37;;
32826;SDS011;51059;42.058;27.986;2022-12-18T07:54:41;18.30;;;8.50;;
32826;SDS011;51059;42.058;27.986;2022-12-18T07:57:07;14.93;;;8.53;;
32826;SDS011;51059;42.058;27.986;2022-12-18T07:59:33;14.53;;;9.27;;
32826;SDS011;51059;42.058;27.986;2022-12-18T08:01:58;16.10;;;9.27;;
32826;SDS011;51059;42.058;27.986;2022-12-18T08:04:24;18.27;;;9.87;;
32826;SDS011;51059;42.058;27.986;2022-12-18T08:06:50;14.67;;;9.10;;
32826;SDS011;51059;42.058;27.986;2022-12-18T08:09:16;17.77;;;9.50;;
32826;SDS011;51059;42.058;27.986;2022-12-18T08:11:41;17.23;;;9.70;;
32826;SDS011;51059;42.058;27.986;2022-12-18T08:14:07;18.77;;;10.13;;
32826;SDS011;51059;42.058;27.986;2022-12-18T08:16:33;19.87;;;10.20;;
32826;SDS011;51059;42.058;27.986;2022-12-18T08:18:59;19.77;;;10.40;;
32826;SDS011;51059;42.058;27.986;2022-12-18T08:21:25;21.20;;;10.30;;
32826;SDS011;51059;42.058;27.986;2022-12-18T08:23:53;20.40;;;10.40;;
32826;SDS011;51059;42.058;27.986;2022-12-18T08:26:20;20.60;;;10.33;;
32826;SDS011;51059;42.058;27.986;2022-12-18T08:28:46;19.37;;;10.63;;
32826;SDS011;51059;42.058;27.986;2022-12-18T08:31:12;20.10;;;10.70;;
32826;SDS011;51059;42.058;27.986;2022-12-18T08:33:38;19.13;;;11.13;;
32826;SDS011;51059;42.058;27.986;2022-12-18T08:36:05;23.53;;;12.20;;
32826;SDS011;51059;42.058;27.986;2022-12-18T08:38:31;21.27;;;12.47;;
32826;SDS011;51059;42.058;27.986;2022-12-18T08:41:01;23.43;;;12.37;;
32826;SDS011;51059;42.058;27.986;2022-12-18T08:43:27;20.20;;;12.27;;
32826;SDS011;51059;42.058;27.986;2022-12-18T08:46:26;23.60;;;13.37;;
32826;SDS011;51059;42.058;27.986;2022-12-18T08:48:52;23.50;;;13.03;;
32826;SDS011;51059;42.058;27.986;2022-12-18T08:51:19;23.50;;;13.30;;
32826;SDS011;51059;42.058;27.986;2022-12-18T08:53:44;26.33;;;14.13;;
32826;SDS011;51059;42.058;27.986;2022-12-18T08:56:11;24.27;;;13.97;;
32826;SDS011;51059;42.058;27.986;2022-12-18T08:58:37;24.40;;;13.27;;
32826;SDS011;51059;42.058;27.986;2022-12-18T09:01:03;25.50;;;13.63;;
32826;SDS011;51059;42.058;27.986;2022-12-18T09:03:30;22.47;;;13.00;;
32826;SDS011;51059;42.058;27.986;2022-12-18T09:05:55;24.00;;;12.97;;
32826;SDS011;51059;42.058;27.986;2022-12-18T09:08:21;21.47;;;12.47;;
32826;SDS011;51059;42.058;27.986;2022-12-18T09:10:47;20.83;;;11.80;;
32826;SDS011;51059;42.058;27.986;2022-12-18T09:13:14;19.27;;;12.53;;
32826;SDS011;51059;42.058;27.986;2022-12-18T09:15:41;24.83;;;13.00;;
32826;SDS011;51059;42.058;27.986;2022-12-18T09:18:07;22.83;;;13.07;;
32826;SDS011;51059;42.058;27.986;2022-12-18T09:20:34;21.23;;;13.53;;
32826;SDS011;51059;42.058;27.986;2022-12-18T09:23:00;26.83;;;13.40;;
32826;SDS011;51059;42.058;27.986;2022-12-18T09:25:26;29.67;;;14.70;;
32826;SDS011;51059;42.058;27.986;2022-12-18T09:27:56;22.57;;;13.63;;
32826;SDS011;51059;42.058;27.986;2022-12-18T09:30:22;21.87;;;14.13;;
32826;SDS011;51059;42.058;27.986;2022-12-18T09:32:47;28.80;;;15.17;;
32826;SDS011;51059;42.058;27.986;2022-12-18T09:35:13;24.70;;;15.03;;
32826;SDS011;51059;42.058;27.986;2022-12-18T09:37:38;27.30;;;14.73;;
32826;SDS011;51059;42.058;27.986;2022-12-18T09:40:04;24.77;;;14.30;;
32826;SDS011;51059;42.058;27.986;2022-12-18T09:42:30;26.17;;;15.73;;
32826;SDS011;51059;42.058;27.986;2022-12-18T09:44:56;26.77;;;15.23;;
32826;SDS011;51059;42.058;27.986;2022-12-18T09:47:36;27.80;;;15.10;;
32826;SDS011;51059;42.058;27.986;2022-12-18T09:50:05;22.57;;;13.53;;
32826;SDS011;51059;42.058;27.986;2022-12-18T09:53:04;24.33;;;13.93;;
32826;SDS011;51059;42.058;27.986;2022-12-18T09:55:33;27.43;;;13.97;;
32826;SDS011;51059;42.058;27.986;2022-12-18T10:00:52;23.10;;;13.97;;
32826;SDS011;51059;42.058;27.986;2022-12-18T10:03:18;24.93;;;15.33;;
32826;SDS011;51059;42.058;27.986;2022-12-18T10:06:00;27.03;;;14.40;;
32826;SDS011;51059;42.058;27.986;2022-12-18T10:24:50;24.23;;;14.40;;
32826;SDS011;51059;42.058;27.986;2022-12-18T10:27:27;24.93;;;14.97;;
32826;SDS011;51059;42.058;27.986;2022-12-18T10:29:54;26.90;;;14.87;;
32826;SDS011;51059;42.058;27.986;2022-12-18T10:32:21;23.67;;;14.03;;
32826;SDS011;51059;42.058;27.986;2022-12-18T10:34:49;21.17;;;13.83;;
32826;SDS011;51059;42.058;27.986;2022-12-18T10:37:17;28.47;;;16.27;;
32826;SDS011;51059;42.058;27.986;2022-12-18T10:39:45;23.00;;;14.07;;
32826;SDS011;51059;42.058;27.986;2022-12-18T10:42:30;22.97;;;13.70;;
32826;SDS011;51059;42.058;27.986;2022-12-18T10:45:05;27.00;;;15.67;;
32826;SDS011;51059;42.058;27.986;2022-12-18T10:47:34;23.57;;;14.73;;
32826;SDS011;51059;42.058;27.986;2022-12-18T10:50:00;24.10;;;14.17;;
32826;SDS011;51059;42.058;27.986;2022-12-18T10:52:26;21.47;;;13.90;;
32826;SDS011;51059;42.058;27.986;2022-12-18T10:54:56;25.67;;;14.20;;
32826;SDS011;51059;42.058;27.986;2022-12-18T10:57:35;22.60;;;14.30;;
32826;SDS011;51059;42.058;27.986;2022-12-18T11:02:52;23.33;;;13.83;;
32826;SDS011;51059;42.058;27.986;2022-12-18T11:05:36;24.73;;;14.60;;
32826;SDS011;51059;42.058;27.986;2022-12-18T11:08:02;26.30;;;14.27;;
32826;SDS011;51059;42.058;27.986;2022-12-18T11:10:32;27.77;;;16.70;;
32826;SDS011;51059;42.058;27.986;2022-12-18T11:13:14;26.47;;;15.03;;
32826;SDS011;51059;42.058;27.986;2022-12-18T11:15:45;26.47;;;14.97;;
32826;SDS011;51059;42.058;27.986;2022-12-18T11:18:31;24.77;;;16.33;;
32826;SDS011;51059;42.058;27.986;2022-12-18T11:21:06;28.17;;;17.20;;
32826;SDS011;51059;42.058;27.986;2022-12-18T11:23:33;28.97;;;17.23;;
32826;SDS011;51059;42.058;27.986;2022-12-18T11:26:00;30.10;;;18.30;;
32826;SDS011;51059;42.058;27.986;2022-12-18T11:34:08;30.90;;;18.90;;
32826;SDS011;51059;42.058;27.986;2022-12-18T11:36:51;32.27;;;17.73;;
32826;SDS011;51059;42.058;27.986;2022-12-18T11:41:52;28.87;;;17.63;;
32826;SDS011;51059;42.058;27.986;2022-12-18T11:47:39;30.13;;;18.83;;
32826;SDS011;51059;42.058;27.986;2022-12-18T11:53:03;37.23;;;20.57;;
32826;SDS011;51059;42.058;27.986;2022-12-18T12:01:01;35.33;;;19.13;;
32826;SDS011;51059;42.058;27.986;2022-12-18T12:09:08;38.80;;;22.50;;
32826;SDS011;51059;42.058;27.986;2022-12-18T12:20:00;40.30;;;22.70;;
32826;SDS011;51059;42.058;27.986;2022-12-18T12:22:50;35.03;;;23.53;;
32826;SDS011;51059;42.058;27.986;2022-12-18T12:25:33;46.43;;;24.37;;
32826;SDS011;51059;42.058;27.986;2022-12-18T12:30:51;42.17;;;23.90;;
32826;SDS011;51059;42.058;27.986;2022-12-18T12:38:41;43.40;;;25.00;;
32826;SDS011;51059;42.058;27.986;2022-12-18T12:41:12;47.60;;;27.53;;
32826;SDS011;51059;42.058;27.986;2022-12-18T12:43:57;48.40;;;25.13;;
32826;SDS011;51059;42.058;27.986;2022-12-18T12:46:28;47.77;;;25.63;;
32826;SDS011;51059;42.058;27.986;2022-12-18T12:48:56;43.07;;;26.77;;
32826;SDS011;51059;42.058;27.986;2022-12-18T12:51:28;48.83;;;27.10;;
32826;SDS011;51059;42.058;27.986;2022-12-18T12:53:56;46.57;;;27.37;;
32826;SDS011;51059;42.058;27.986;2022-12-18T12:56:32;43.13;;;24.80;;
32826;SDS011;51059;42.058;27.986;2022-12-18T13:04:21;43.50;;;27.80;;
32826;SDS011;51059;42.058;27.986;2022-12-18T13:07:06;46.17;;;27.17;;
32826;SDS011;51059;42.058;27.986;2022-12-18T13:10:11;54.80;;;26.63;;
32826;SDS011;51059;42.058;27.986;2022-12-18T13:12:54;44.30;;;27.20;;
32826;SDS011;51059;42.058;27.986;2022-12-18T13:15:30;45.53;;;28.23;;
32826;SDS011;51059;42.058;27.986;2022-12-18T13:20:35;49.73;;;29.73;;
32826;SDS011;51059;42.058;27.986;2022-12-18T13:25:49;43.60;;;26.90;;
32826;SDS011;51059;42.058;27.986;2022-12-18T13:28:22;43.23;;;23.90;;
32826;SDS011;51059;42.058;27.986;2022-12-18T13:31:08;42.07;;;23.60;;
32826;SDS011;51059;42.058;27.986;2022-12-18T13:38:40;39.50;;;23.57;;
32826;SDS011;51059;42.058;27.986;2022-12-18T13:43:37;38.40;;;21.57;;
32826;SDS011;51059;42.058;27.986;2022-12-18T13:49:19;36.40;;;21.40;;
32826;SDS011;51059;42.058;27.986;2022-12-18T13:51:48;36.90;;;20.57;;
32826;SDS011;51059;42.058;27.986;2022-12-18T13:57:00;36.97;;;21.23;;
32826;SDS011;51059;42.058;27.986;2022-12-18T13:59:33;41.47;;;24.60;;
32826;SDS011;51059;42.058;27.986;2022-12-18T14:02:00;50.27;;;26.07;;
32826;SDS011;51059;42.058;27.986;2022-12-18T14:04:34;37.23;;;22.40;;
32826;SDS011;51059;42.058;27.986;2022-12-18T14:07:14;34.00;;;22.30;;
32826;SDS011;51059;42.058;27.986;2022-12-18T14:09:42;38.80;;;22.13;;
32826;SDS011;51059;42.058;27.986;2022-12-18T14:12:17;34.30;;;21.53;;
32826;SDS011;51059;42.058;27.986;2022-12-18T14:15:02;30.93;;;20.33;;
32826;SDS011;51059;42.058;27.986;2022-12-18T14:17:30;30.83;;;20.83;;
32826;SDS011;51059;42.058;27.986;2022-12-18T14:19:56;28.47;;;17.40;;
32826;SDS011;51059;42.058;27.986;2022-12-18T14:22:25;27.83;;;17.37;;
32826;SDS011;51059;42.058;27.986;2022-12-18T14:27:41;25.83;;;15.60;;
32826;SDS011;51059;42.058;27.986;2022-12-18T14:33:02;25.67;;;13.07;;
32826;SDS011;51059;42.058;27.986;2022-12-18T14:35:34;25.93;;;11.93;;
32826;SDS011;51059;42.058;27.986;2022-12-18T14:40:52;22.70;;;12.00;;
32826;SDS011;51059;42.058;27.986;2022-12-18T14:43:23;22.63;;;11.23;;
32826;SDS011;51059;42.058;27.986;2022-12-18T14:45:50;22.30;;;12.20;;
32826;SDS011;51059;42.058;27.986;2022-12-18T14:51:05;23.73;;;11.20;;
32826;SDS011;51059;42.058;27.986;2022-12-18T14:53:39;22.17;;;11.07;;
32826;SDS011;51059;42.058;27.986;2022-12-18T14:56:17;22.33;;;11.20;;
32826;SDS011;51059;42.058;27.986;2022-12-18T14:58:46;22.60;;;11.23;;
32826;SDS011;51059;42.058;27.986;2022-12-18T15:01:35;22.40;;;11.57;;
32826;SDS011;51059;42.058;27.986;2022-12-18T15:04:02;20.90;;;10.83;;
32826;SDS011;51059;42.058;27.986;2022-12-18T15:06:33;21.13;;;10.63;;
32826;SDS011;51059;42.058;27.986;2022-12-18T15:09:01;24.10;;;10.80;;
32826;SDS011;51059;42.058;27.986;2022-12-18T15:11:33;19.00;;;9.87;;
32826;SDS011;51059;42.058;27.986;2022-12-18T15:14:21;19.60;;;11.90;;
32826;SDS011;51059;42.058;27.986;2022-12-18T15:17:00;21.40;;;10.97;;
32826;SDS011;51059;42.058;27.986;2022-12-18T15:19:34;24.60;;;11.50;;
32826;SDS011;51059;42.058;27.986;2022-12-18T15:22:03;23.33;;;11.43;;
32826;SDS011;51059;42.058;27.986;2022-12-18T15:24:29;19.87;;;11.50;;
32826;SDS011;51059;42.058;27.986;2022-12-18T15:26:56;27.70;;;13.10;;
32826;SDS011;51059;42.058;27.986;2022-12-18T15:29:23;23.40;;;12.47;;
32826;SDS011;51059;42.058;27.986;2022-12-18T15:32:10;21.67;;;12.60;;
32826;SDS011;51059;42.058;27.986;2022-12-18T15:34:44;22.17;;;12.07;;
32826;SDS011;51059;42.058;27.986;2022-12-18T15:37:09;26.50;;;12.67;;
32826;SDS011;51059;42.058;27.986;2022-12-18T15:39:35;24.87;;;12.20;;
32826;SDS011;51059;42.058;27.986;2022-12-18T15:42:01;20.97;;;12.17;;
32826;SDS011;51059;42.058;27.986;2022-12-18T15:44:45;26.03;;;13.03;;
32826;SDS011;51059;42.058;27.986;2022-12-18T15:47:11;21.60;;;12.07;;
32826;SDS011;51059;42.058;27.986;2022-12-18T15:49:38;22.47;;;12.23;;
32826;SDS011;51059;42.058;27.986;2022-12-18T15:52:04;21.50;;;11.80;;
32826;SDS011;51059;42.058;27.986;2022-12-18T15:54:30;23.87;;;12.17;;
32826;SDS011;51059;42.058;27.986;2022-12-18T15:57:14;21.20;;;11.93;;
32826;SDS011;51059;42.058;27.986;2022-12-18T15:59:49;28.93;;;12.53;;
32826;SDS011;51059;42.058;27.986;2022-12-18T16:02:17;20.17;;;12.10;;
32826;SDS011;51059;42.058;27.986;2022-12-18T16:04:44;20.87;;;12.43;;
32826;SDS011;51059;42.058;27.986;2022-12-18T16:07:11;21.87;;;11.87;;
32826;SDS011;51059;42.058;27.986;2022-12-18T16:09:37;28.20;;;12.87;;
32826;SDS011;51059;42.058;27.986;2022-12-18T16:12:04;24.63;;;14.40;;
32826;SDS011;51059;42.058;27.986;2022-12-18T16:14:30;23.83;;;13.33;;
32826;SDS011;51059;42.058;27.986;2022-12-18T16:16:57;25.50;;;13.07;;
32826;SDS011;51059;42.058;27.986;2022-12-18T16:19:24;32.43;;;14.47;;
32826;SDS011;51059;42.058;27.986;2022-12-18T16:21:50;25.90;;;14.70;;
32826;SDS011;51059;42.058;27.986;2022-12-18T16:24:17;27.23;;;13.60;;
32826;SDS011;51059;42.058;27.986;2022-12-18T16:26:47;25.90;;;13.27;;
32826;SDS011;51059;42.058;27.986;2022-12-18T16:29:13;28.77;;;14.50;;